sensor_id;sensor_type;location;lat;lon;timestamp;temperature;humidity
5248;DHT22;2644;52.420;13.580;2022-09-29T00:01:01;7.10;99.90
5248;DHT22;2644;52.420;13.580;2022-09-29T00:02:04;7.10;99.90
5248;DHT22;2644;52.420;13.580;2022-09-29T00:03:06;7.10;99.90
5248;DHT22;2644;52.420;13.580;2022-09-29T00:04:10;7.10;99.90
5248;DHT22;2644;52.420;13.580;2022-09-29T00:05:12;7.10;99.90
5248;DHT22;2644;52.420;13.580;2022-09-29T00:06:16;7.00;99.90
5248;DHT22;2644;52.420;13.580;2022-09-29T00:07:19;7.00;99.90
5248;DHT22;2644;52.420;13.580;2022-09-29T00:08:23;7.00;99.90
5248;DHT22;2644;52.420;13.580;2022-09-29T00:09:25;7.00;99.90
5248;DHT22;2644;52.420;13.580;2022-09-29T00:10:28;7.00;99.90
5248;DHT22;2644;52.420;13.580;2022-09-29T00:11:30;7.00;99.90
5248;DHT22;2644;52.420;13.580;2022-09-29T00:12:35;7.00;99.90
5248;DHT22;2644;52.420;13.580;2022-09-29T00:13:37;7.00;99.90
5248;DHT22;2644;52.420;13.580;2022-09-29T00:14:40;7.00;99.90
5248;DHT22;2644;52.420;13.580;2022-09-29T00:15:55;7.00;99.90
5248;DHT22;2644;52.420;13.580;2022-09-29T00:16:58;7.00;99.90
5248;DHT22;2644;52.420;13.580;2022-09-29T00:18:00;7.00;99.90
5248;DHT22;2644;52.420;13.580;2022-09-29T00:19:15;7.00;99.90
5248;DHT22;2644;52.420;13.580;2022-09-29T00:20:17;7.00;99.90
5248;DHT22;2644;52.420;13.580;2022-09-29T00:21:21;7.00;99.90
5248;DHT22;2644;52.420;13.580;2022-09-29T00:22:23;7.00;99.90
5248;DHT22;2644;52.420;13.580;2022-09-29T00:23:26;7.00;99.90
5248;DHT22;2644;52.420;13.580;2022-09-29T00:24:29;7.00;99.90
5248;DHT22;2644;52.420;13.580;2022-09-29T00:25:32;6.90;99.90
5248;DHT22;2644;52.420;13.580;2022-09-29T00:26:34;6.90;99.90
5248;DHT22;2644;52.420;13.580;2022-09-29T00:27:39;6.90;99.90
5248;DHT22;2644;52.420;13.580;2022-09-29T00:28:45;6.90;99.90
5248;DHT22;2644;52.420;13.580;2022-09-29T00:29:48;6.90;99.90
5248;DHT22;2644;52.420;13.580;2022-09-29T00:30:50;6.90;99.90
5248;DHT22;2644;52.420;13.580;2022-09-29T00:31:53;6.90;99.90
5248;DHT22;2644;52.420;13.580;2022-09-29T00:32:56;6.90;99.90
5248;DHT22;2644;52.420;13.580;2022-09-29T00:33:59;6.90;99.90
5248;DHT22;2644;52.420;13.580;2022-09-29T00:35:01;6.90;99.90
5248;DHT22;2644;52.420;13.580;2022-09-29T00:36:07;6.90;99.90
5248;DHT22;2644;52.420;13.580;2022-09-29T00:37:10;6.90;99.90
5248;DHT22;2644;52.420;13.580;2022-09-29T00:38:12;6.90;99.90
5248;DHT22;2644;52.420;13.580;2022-09-29T00:39:15;6.80;99.90
5248;DHT22;2644;52.420;13.580;2022-09-29T00:40:17;6.80;99.90
5248;DHT22;2644;52.420;13.580;2022-09-29T00:41:21;6.80;99.90
5248;DHT22;2644;52.420;13.580;2022-09-29T00:42:25;6.80;99.90
5248;DHT22;2644;52.420;13.580;2022-09-29T00:43:50;6.80;99.90
5248;DHT22;2644;52.420;13.580;2022-09-29T00:45:04;6.80;99.90
5248;DHT22;2644;52.420;13.580;2022-09-29T00:46:08;6.80;99.90
5248;DHT22;2644;52.420;13.580;2022-09-29T00:47:13;6.80;99.90
5248;DHT22;2644;52.420;13.580;2022-09-29T00:48:23;6.90;99.90
5248;DHT22;2644;52.420;13.580;2022-09-29T00:49:39;6.90;99.90
5248;DHT22;2644;52.420;13.580;2022-09-29T00:50:47;6.80;99.90
5248;DHT22;2644;52.420;13.580;2022-09-29T00:51:53;6.80;99.90
5248;DHT22;2644;52.420;13.580;2022-09-29T00:52:59;6.80;99.90
5248;DHT22;2644;52.420;13.580;2022-09-29T00:54:03;6.80;99.90
5248;DHT22;2644;52.420;13.580;2022-09-29T00:55:12;6.80;99.90
5248;DHT22;2644;52.420;13.580;2022-09-29T00:56:15;6.80;99.90
5248;DHT22;2644;52.420;13.580;2022-09-29T00:57:24;6.80;99.90
5248;DHT22;2644;52.420;13.580;2022-09-29T00:58:31;6.80;99.90
5248;DHT22;2644;52.420;13.580;2022-09-29T00:59:43;6.80;99.90
5248;DHT22;2644;52.420;13.580;2022-09-29T01:00:48;6.80;99.90
5248;DHT22;2644;52.420;13.580;2022-09-29T01:01:51;6.70;99.90
5248;DHT22;2644;52.420;13.580;2022-09-29T01:02:58;6.70;99.90
5248;DHT22;2644;52.420;13.580;2022-09-29T01:04:08;6.70;99.90
5248;DHT22;2644;52.420;13.580;2022-09-29T01:05:16;6.70;99.90
5248;DHT22;2644;52.420;13.580;2022-09-29T01:06:22;6.70;99.90
5248;DHT22;2644;52.420;13.580;2022-09-29T01:07:26;6.70;99.90
5248;DHT22;2644;52.420;13.580;2022-09-29T01:08:33;6.70;99.90
5248;DHT22;2644;52.420;13.580;2022-09-29T01:09:39;6.70;99.90
5248;DHT22;2644;52.420;13.580;2022-09-29T01:10:42;6.60;99.90
5248;DHT22;2644;52.420;13.580;2022-09-29T01:11:46;6.60;99.90
5248;DHT22;2644;52.420;13.580;2022-09-29T01:12:49;6.60;99.90
5248;DHT22;2644;52.420;13.580;2022-09-29T01:13:53;6.60;99.90
5248;DHT22;2644;52.420;13.580;2022-09-29T01:14:57;6.60;99.90
5248;DHT22;2644;52.420;13.580;2022-09-29T01:16:02;6.50;99.90
5248;DHT22;2644;52.420;13.580;2022-09-29T01:17:05;6.50;99.90
5248;DHT22;2644;52.420;13.580;2022-09-29T01:18:08;6.50;99.90
5248;DHT22;2644;52.420;13.580;2022-09-29T01:19:13;6.50;99.90
5248;DHT22;2644;52.420;13.580;2022-09-29T01:20:20;6.50;99.90
5248;DHT22;2644;52.420;13.580;2022-09-29T01:21:28;6.50;99.90
5248;DHT22;2644;52.420;13.580;2022-09-29T01:22:53;6.50;99.90
5248;DHT22;2644;52.420;13.580;2022-09-29T01:24:32;6.50;99.90
5248;DHT22;2644;52.420;13.580;2022-09-29T01:26:05;6.50;99.90
5248;DHT22;2644;52.420;13.580;2022-09-29T01:27:41;6.50;99.90
5248;DHT22;2644;52.420;13.580;2022-09-29T01:29:10;6.50;99.90
5248;DHT22;2644;52.420;13.580;2022-09-29T01:30:22;6.50;99.90
5248;DHT22;2644;52.420;13.580;2022-09-29T01:31:35;6.50;99.90
5248;DHT22;2644;52.420;13.580;2022-09-29T01:32:56;6.50;99.90
5248;DHT22;2644;52.420;13.580;2022-09-29T01:34:07;6.50;99.90
5248;DHT22;2644;52.420;13.580;2022-09-29T01:35:15;6.50;99.90
5248;DHT22;2644;52.420;13.580;2022-09-29T01:36:24;6.50;99.90
5248;DHT22;2644;52.420;13.580;2022-09-29T01:37:41;6.40;99.90
5248;DHT22;2644;52.420;13.580;2022-09-29T01:38:55;6.40;99.90
5248;DHT22;2644;52.420;13.580;2022-09-29T01:40:05;6.50;99.90
5248;DHT22;2644;52.420;13.580;2022-09-29T01:41:12;6.50;99.90
5248;DHT22;2644;52.420;13.580;2022-09-29T01:42:18;6.40;99.90
5248;DHT22;2644;52.420;13.580;2022-09-29T01:43:24;6.40;99.90
5248;DHT22;2644;52.420;13.580;2022-09-29T01:44:33;6.40;99.90
5248;DHT22;2644;52.420;13.580;2022-09-29T01:45:41;6.40;99.90
5248;DHT22;2644;52.420;13.580;2022-09-29T01:46:51;6.40;99.90
5248;DHT22;2644;52.420;13.580;2022-09-29T01:47:55;6.40;99.90
5248;DHT22;2644;52.420;13.580;2022-09-29T01:49:01;6.40;99.90
5248;DHT22;2644;52.420;13.580;2022-09-29T01:50:07;6.40;99.90
5248;DHT22;2644;52.420;13.580;2022-09-29T01:51:16;6.30;99.90
5248;DHT22;2644;52.420;13.580;2022-09-29T01:52:20;6.30;99.90
5248;DHT22;2644;52.420;13.580;2022-09-29T01:53:27;6.30;99.90
5248;DHT22;2644;52.420;13.580;2022-09-29T01:54:42;6.40;99.90
5248;DHT22;2644;52.420;13.580;2022-09-29T01:55:49;6.40;99.90
5248;DHT22;2644;52.420;13.580;2022-09-29T01:56:56;6.40;99.90
5248;DHT22;2644;52.420;13.580;2022-09-29T01:58:03;6.40;99.90
5248;DHT22;2644;52.420;13.580;2022-09-29T01:59:11;6.40;99.90
5248;DHT22;2644;52.420;13.580;2022-09-29T02:00:17;6.30;99.90
5248;DHT22;2644;52.420;13.580;2022-09-29T02:01:22;6.30;99.90
5248;DHT22;2644;52.420;13.580;2022-09-29T02:02:32;6.30;99.90
5248;DHT22;2644;52.420;13.580;2022-09-29T02:03:41;6.30;99.90
5248;DHT22;2644;52.420;13.580;2022-09-29T02:04:47;6.20;99.90
5248;DHT22;2644;52.420;13.580;2022-09-29T02:05:55;6.20;99.90
5248;DHT22;2644;52.420;13.580;2022-09-29T02:07:01;6.20;99.90
5248;DHT22;2644;52.420;13.580;2022-09-29T02:08:09;6.20;99.90
5248;DHT22;2644;52.420;13.580;2022-09-29T02:09:18;6.20;99.90
5248;DHT22;2644;52.420;13.580;2022-09-29T02:10:27;6.20;99.90
5248;DHT22;2644;52.420;13.580;2022-09-29T02:11:34;6.20;99.90
5248;DHT22;2644;52.420;13.580;2022-09-29T02:12:41;6.20;99.90
5248;DHT22;2644;52.420;13.580;2022-09-29T02:13:49;6.20;99.90
5248;DHT22;2644;52.420;13.580;2022-09-29T02:14:53;6.20;99.90
5248;DHT22;2644;52.420;13.580;2022-09-29T02:15:58;6.30;99.90
5248;DHT22;2644;52.420;13.580;2022-09-29T02:17:06;6.30;99.90
5248;DHT22;2644;52.420;13.580;2022-09-29T02:18:18;6.30;99.90
5248;DHT22;2644;52.420;13.580;2022-09-29T02:19:24;6.30;99.90
5248;DHT22;2644;52.420;13.580;2022-09-29T02:20:27;6.30;99.90
5248;DHT22;2644;52.420;13.580;2022-09-29T02:21:29;6.30;99.90
5248;DHT22;2644;52.420;13.580;2022-09-29T02:22:34;6.30;99.90
5248;DHT22;2644;52.420;13.580;2022-09-29T02:23:36;6.30;99.90
5248;DHT22;2644;52.420;13.580;2022-09-29T02:24:39;6.20;99.90
5248;DHT22;2644;52.420;13.580;2022-09-29T02:25:42;6.30;99.90
5248;DHT22;2644;52.420;13.580;2022-09-29T02:26:46;6.30;99.90
5248;DHT22;2644;52.420;13.580;2022-09-29T02:27:48;6.30;99.90
5248;DHT22;2644;52.420;13.580;2022-09-29T02:28:52;6.30;99.90
5248;DHT22;2644;52.420;13.580;2022-09-29T02:29:56;6.30;99.90
5248;DHT22;2644;52.420;13.580;2022-09-29T02:31:00;6.30;99.90
5248;DHT22;2644;52.420;13.580;2022-09-29T02:32:05;6.30;99.90
5248;DHT22;2644;52.420;13.580;2022-09-29T02:33:19;6.40;99.90
5248;DHT22;2644;52.420;13.580;2022-09-29T02:34:23;6.30;99.90
5248;DHT22;2644;52.420;13.580;2022-09-29T02:35:31;6.30;99.90
5248;DHT22;2644;52.420;13.580;2022-09-29T02:36:46;6.30;99.90
5248;DHT22;2644;52.420;13.580;2022-09-29T02:38:02;6.30;99.90
5248;DHT22;2644;52.420;13.580;2022-09-29T02:39:11;6.30;99.90
5248;DHT22;2644;52.420;13.580;2022-09-29T02:40:27;6.40;99.90
5248;DHT22;2644;52.420;13.580;2022-09-29T02:41:41;6.40;99.90
5248;DHT22;2644;52.420;13.580;2022-09-29T02:43:06;6.40;99.90
5248;DHT22;2644;52.420;13.580;2022-09-29T02:44:23;6.40;99.90
5248;DHT22;2644;52.420;13.580;2022-09-29T02:45:34;6.30;99.90
5248;DHT22;2644;52.420;13.580;2022-09-29T02:46:49;6.40;99.90
5248;DHT22;2644;52.420;13.580;2022-09-29T02:48:11;6.40;99.90
5248;DHT22;2644;52.420;13.580;2022-09-29T02:49:32;6.40;99.90
5248;DHT22;2644;52.420;13.580;2022-09-29T02:50:47;6.50;99.90
5248;DHT22;2644;52.420;13.580;2022-09-29T02:51:56;6.40;99.90
5248;DHT22;2644;52.420;13.580;2022-09-29T02:53:03;6.50;99.90
5248;DHT22;2644;52.420;13.580;2022-09-29T02:54:19;6.50;99.90
5248;DHT22;2644;52.420;13.580;2022-09-29T02:55:29;6.50;99.90
5248;DHT22;2644;52.420;13.580;2022-09-29T02:56:39;6.50;99.90
5248;DHT22;2644;52.420;13.580;2022-09-29T02:57:49;6.50;99.90
5248;DHT22;2644;52.420;13.580;2022-09-29T02:58:58;6.40;99.90
5248;DHT22;2644;52.420;13.580;2022-09-29T03:00:04;6.50;99.90
5248;DHT22;2644;52.420;13.580;2022-09-29T03:01:10;6.50;99.90
5248;DHT22;2644;52.420;13.580;2022-09-29T03:02:14;6.40;99.90
5248;DHT22;2644;52.420;13.580;2022-09-29T03:03:17;6.50;99.90
5248;DHT22;2644;52.420;13.580;2022-09-29T03:04:22;6.50;99.90
5248;DHT22;2644;52.420;13.580;2022-09-29T03:05:25;6.50;99.90
5248;DHT22;2644;52.420;13.580;2022-09-29T03:06:28;6.50;99.90
5248;DHT22;2644;52.420;13.580;2022-09-29T03:07:31;6.50;99.90
5248;DHT22;2644;52.420;13.580;2022-09-29T03:08:34;6.50;99.90
5248;DHT22;2644;52.420;13.580;2022-09-29T03:09:36;6.50;99.90
5248;DHT22;2644;52.420;13.580;2022-09-29T03:10:39;6.50;99.90
5248;DHT22;2644;52.420;13.580;2022-09-29T03:11:41;6.50;99.90
5248;DHT22;2644;52.420;13.580;2022-09-29T03:12:44;6.50;99.90
5248;DHT22;2644;52.420;13.580;2022-09-29T03:13:47;6.50;99.90
5248;DHT22;2644;52.420;13.580;2022-09-29T03:14:50;6.50;99.90
5248;DHT22;2644;52.420;13.580;2022-09-29T03:15:52;6.50;99.90
5248;DHT22;2644;52.420;13.580;2022-09-29T03:16:56;6.50;99.90
5248;DHT22;2644;52.420;13.580;2022-09-29T03:17:58;6.50;99.90
5248;DHT22;2644;52.420;13.580;2022-09-29T03:19:01;6.50;99.90
5248;DHT22;2644;52.420;13.580;2022-09-29T03:20:03;6.50;99.90
5248;DHT22;2644;52.420;13.580;2022-09-29T03:21:08;6.60;99.90
5248;DHT22;2644;52.420;13.580;2022-09-29T03:22:10;6.60;99.90
5248;DHT22;2644;52.420;13.580;2022-09-29T03:23:13;6.60;99.90
5248;DHT22;2644;52.420;13.580;2022-09-29T03:24:15;6.60;99.90
5248;DHT22;2644;52.420;13.580;2022-09-29T03:25:18;6.60;99.90
5248;DHT22;2644;52.420;13.580;2022-09-29T03:26:20;6.70;99.90
5248;DHT22;2644;52.420;13.580;2022-09-29T03:27:24;6.70;99.90
5248;DHT22;2644;52.420;13.580;2022-09-29T03:28:26;6.70;99.90
5248;DHT22;2644;52.420;13.580;2022-09-29T03:29:29;6.70;99.90
5248;DHT22;2644;52.420;13.580;2022-09-29T03:30:31;6.70;99.90
5248;DHT22;2644;52.420;13.580;2022-09-29T03:31:34;6.70;99.90
5248;DHT22;2644;52.420;13.580;2022-09-29T03:32:36;6.70;99.90
5248;DHT22;2644;52.420;13.580;2022-09-29T03:33:40;6.70;99.90
5248;DHT22;2644;52.420;13.580;2022-09-29T03:34:42;6.70;99.90
5248;DHT22;2644;52.420;13.580;2022-09-29T03:35:45;6.70;99.90
5248;DHT22;2644;52.420;13.580;2022-09-29T03:36:48;6.70;99.90
5248;DHT22;2644;52.420;13.580;2022-09-29T03:37:56;6.70;99.90
5248;DHT22;2644;52.420;13.580;2022-09-29T03:38:58;6.70;99.90
5248;DHT22;2644;52.420;13.580;2022-09-29T03:40:01;6.70;99.90
5248;DHT22;2644;52.420;13.580;2022-09-29T03:41:03;6.70;99.90
5248;DHT22;2644;52.420;13.580;2022-09-29T03:42:06;6.70;99.90
5248;DHT22;2644;52.420;13.580;2022-09-29T03:43:08;6.70;99.90
5248;DHT22;2644;52.420;13.580;2022-09-29T03:44:11;6.70;99.90
5248;DHT22;2644;52.420;13.580;2022-09-29T03:45:13;6.70;99.90
5248;DHT22;2644;52.420;13.580;2022-09-29T03:46:16;6.70;99.90
5248;DHT22;2644;52.420;13.580;2022-09-29T03:47:19;6.80;99.90
5248;DHT22;2644;52.420;13.580;2022-09-29T03:48:23;6.80;99.90
5248;DHT22;2644;52.420;13.580;2022-09-29T03:49:25;6.80;99.90
5248;DHT22;2644;52.420;13.580;2022-09-29T03:50:28;6.90;99.90
5248;DHT22;2644;52.420;13.580;2022-09-29T03:51:30;6.90;99.90
5248;DHT22;2644;52.420;13.580;2022-09-29T03:52:35;6.90;99.90
5248;DHT22;2644;52.420;13.580;2022-09-29T03:53:37;6.90;99.90
5248;DHT22;2644;52.420;13.580;2022-09-29T03:54:40;6.90;99.90
5248;DHT22;2644;52.420;13.580;2022-09-29T03:55:45;6.90;99.90
5248;DHT22;2644;52.420;13.580;2022-09-29T03:56:48;6.90;99.90
5248;DHT22;2644;52.420;13.580;2022-09-29T03:57:50;6.90;99.90
5248;DHT22;2644;52.420;13.580;2022-09-29T03:58:53;6.90;99.90
5248;DHT22;2644;52.420;13.580;2022-09-29T03:59:55;6.90;99.90
5248;DHT22;2644;52.420;13.580;2022-09-29T04:00:58;6.90;99.90
5248;DHT22;2644;52.420;13.580;2022-09-29T04:02:00;6.90;99.90
5248;DHT22;2644;52.420;13.580;2022-09-29T04:03:04;6.90;99.90
5248;DHT22;2644;52.420;13.580;2022-09-29T04:04:08;7.00;99.90
5248;DHT22;2644;52.420;13.580;2022-09-29T04:05:12;7.00;99.90
5248;DHT22;2644;52.420;13.580;2022-09-29T04:06:14;7.00;99.90
5248;DHT22;2644;52.420;13.580;2022-09-29T04:07:17;7.00;99.90
5248;DHT22;2644;52.420;13.580;2022-09-29T04:08:20;6.90;99.90
5248;DHT22;2644;52.420;13.580;2022-09-29T04:09:23;7.00;99.90
5248;DHT22;2644;52.420;13.580;2022-09-29T04:10:25;6.90;99.90
5248;DHT22;2644;52.420;13.580;2022-09-29T04:11:28;6.90;99.90
5248;DHT22;2644;52.420;13.580;2022-09-29T04:12:30;6.90;99.90
5248;DHT22;2644;52.420;13.580;2022-09-29T04:13:33;6.90;99.90
5248;DHT22;2644;52.420;13.580;2022-09-29T04:14:35;6.90;99.90
5248;DHT22;2644;52.420;13.580;2022-09-29T04:15:38;6.90;99.90
5248;DHT22;2644;52.420;13.580;2022-09-29T04:16:40;6.90;99.90
5248;DHT22;2644;52.420;13.580;2022-09-29T04:17:43;6.90;99.90
5248;DHT22;2644;52.420;13.580;2022-09-29T04:18:45;6.90;99.90
5248;DHT22;2644;52.420;13.580;2022-09-29T04:19:48;6.90;99.90
5248;DHT22;2644;52.420;13.580;2022-09-29T04:20:50;6.90;99.90
5248;DHT22;2644;52.420;13.580;2022-09-29T04:21:53;6.90;99.90
5248;DHT22;2644;52.420;13.580;2022-09-29T04:22:56;6.90;99.90
5248;DHT22;2644;52.420;13.580;2022-09-29T04:24:00;7.00;99.90
5248;DHT22;2644;52.420;13.580;2022-09-29T04:25:05;7.00;99.90
5248;DHT22;2644;52.420;13.580;2022-09-29T04:26:08;7.00;99.90
5248;DHT22;2644;52.420;13.580;2022-09-29T04:27:11;7.00;99.90
5248;DHT22;2644;52.420;13.580;2022-09-29T04:28:13;7.00;99.90
5248;DHT22;2644;52.420;13.580;2022-09-29T04:29:16;7.00;99.90
5248;DHT22;2644;52.420;13.580;2022-09-29T04:30:18;7.00;99.90
5248;DHT22;2644;52.420;13.580;2022-09-29T04:31:22;7.00;99.90
5248;DHT22;2644;52.420;13.580;2022-09-29T04:32:24;7.10;99.90
5248;DHT22;2644;52.420;13.580;2022-09-29T04:33:28;7.00;99.90
5248;DHT22;2644;52.420;13.580;2022-09-29T04:34:30;7.00;99.90
5248;DHT22;2644;52.420;13.580;2022-09-29T04:35:34;7.00;99.90
5248;DHT22;2644;52.420;13.580;2022-09-29T04:36:38;7.00;99.90
5248;DHT22;2644;52.420;13.580;2022-09-29T04:37:40;7.00;99.90
5248;DHT22;2644;52.420;13.580;2022-09-29T04:38:42;7.00;99.90
5248;DHT22;2644;52.420;13.580;2022-09-29T04:39:47;7.00;99.90
5248;DHT22;2644;52.420;13.580;2022-09-29T04:40:49;7.00;99.90
5248;DHT22;2644;52.420;13.580;2022-09-29T04:41:52;7.00;99.90
5248;DHT22;2644;52.420;13.580;2022-09-29T04:42:54;7.00;99.90
5248;DHT22;2644;52.420;13.580;2022-09-29T04:43:57;7.00;99.90
5248;DHT22;2644;52.420;13.580;2022-09-29T04:45:00;7.00;99.90
5248;DHT22;2644;52.420;13.580;2022-09-29T04:46:04;7.00;99.90
5248;DHT22;2644;52.420;13.580;2022-09-29T04:47:06;7.00;99.90
5248;DHT22;2644;52.420;13.580;2022-09-29T04:48:10;7.00;99.90
5248;DHT22;2644;52.420;13.580;2022-09-29T04:49:12;7.10;99.90
5248;DHT22;2644;52.420;13.580;2022-09-29T04:50:15;7.00;99.90
5248;DHT22;2644;52.420;13.580;2022-09-29T04:51:17;7.10;99.90
5248;DHT22;2644;52.420;13.580;2022-09-29T04:52:20;7.00;99.90
5248;DHT22;2644;52.420;13.580;2022-09-29T04:53:22;7.00;99.90
5248;DHT22;2644;52.420;13.580;2022-09-29T04:54:29;7.00;99.90
5248;DHT22;2644;52.420;13.580;2022-09-29T04:55:39;7.00;99.90
5248;DHT22;2644;52.420;13.580;2022-09-29T04:56:42;7.00;99.90
5248;DHT22;2644;52.420;13.580;2022-09-29T04:57:44;7.00;99.90
5248;DHT22;2644;52.420;13.580;2022-09-29T04:58:49;7.10;99.90
5248;DHT22;2644;52.420;13.580;2022-09-29T04:59:51;7.00;99.90
5248;DHT22;2644;52.420;13.580;2022-09-29T05:00:54;7.10;99.90
5248;DHT22;2644;52.420;13.580;2022-09-29T05:01:57;7.10;99.90
5248;DHT22;2644;52.420;13.580;2022-09-29T05:03:00;7.10;99.90
5248;DHT22;2644;52.420;13.580;2022-09-29T05:04:02;7.10;99.90
5248;DHT22;2644;52.420;13.580;2022-09-29T05:05:06;7.10;99.90
5248;DHT22;2644;52.420;13.580;2022-09-29T05:06:09;7.10;99.90
5248;DHT22;2644;52.420;13.580;2022-09-29T05:07:12;7.10;99.90
5248;DHT22;2644;52.420;13.580;2022-09-29T05:08:14;7.10;99.90
5248;DHT22;2644;52.420;13.580;2022-09-29T05:09:17;7.10;99.90
5248;DHT22;2644;52.420;13.580;2022-09-29T05:10:25;7.10;99.90
5248;DHT22;2644;52.420;13.580;2022-09-29T05:11:29;7.10;99.90
5248;DHT22;2644;52.420;13.580;2022-09-29T05:12:32;7.20;99.90
5248;DHT22;2644;52.420;13.580;2022-09-29T05:13:35;7.20;99.90
5248;DHT22;2644;52.420;13.580;2022-09-29T05:14:38;7.20;99.90
5248;DHT22;2644;52.420;13.580;2022-09-29T05:15:40;7.20;99.90
5248;DHT22;2644;52.420;13.580;2022-09-29T05:16:43;7.20;99.90
5248;DHT22;2644;52.420;13.580;2022-09-29T05:17:45;7.20;99.90
5248;DHT22;2644;52.420;13.580;2022-09-29T05:18:49;7.20;99.90
5248;DHT22;2644;52.420;13.580;2022-09-29T05:19:51;7.30;99.90
5248;DHT22;2644;52.420;13.580;2022-09-29T05:20:54;7.30;99.90
5248;DHT22;2644;52.420;13.580;2022-09-29T05:22:16;7.30;99.90
5248;DHT22;2644;52.420;13.580;2022-09-29T05:23:25;7.20;99.90
5248;DHT22;2644;52.420;13.580;2022-09-29T05:24:29;7.20;99.90
5248;DHT22;2644;52.420;13.580;2022-09-29T05:25:31;7.20;99.90
5248;DHT22;2644;52.420;13.580;2022-09-29T05:26:35;7.30;99.90
5248;DHT22;2644;52.420;13.580;2022-09-29T05:27:38;7.30;99.90
5248;DHT22;2644;52.420;13.580;2022-09-29T05:28:43;7.30;99.90
5248;DHT22;2644;52.420;13.580;2022-09-29T05:29:46;7.30;99.90
5248;DHT22;2644;52.420;13.580;2022-09-29T05:30:48;7.30;99.90
5248;DHT22;2644;52.420;13.580;2022-09-29T05:31:51;7.30;99.90
5248;DHT22;2644;52.420;13.580;2022-09-29T05:32:53;7.30;99.90
5248;DHT22;2644;52.420;13.580;2022-09-29T05:34:00;7.30;99.90
5248;DHT22;2644;52.420;13.580;2022-09-29T05:35:02;7.30;99.90
5248;DHT22;2644;52.420;13.580;2022-09-29T05:36:06;7.20;99.90
5248;DHT22;2644;52.420;13.580;2022-09-29T05:37:09;7.30;99.90
5248;DHT22;2644;52.420;13.580;2022-09-29T05:38:12;7.30;99.90
5248;DHT22;2644;52.420;13.580;2022-09-29T05:39:14;7.30;99.90
5248;DHT22;2644;52.420;13.580;2022-09-29T05:40:18;7.30;99.90
5248;DHT22;2644;52.420;13.580;2022-09-29T05:41:25;7.30;99.90
5248;DHT22;2644;52.420;13.580;2022-09-29T05:42:28;7.30;99.90
5248;DHT22;2644;52.420;13.580;2022-09-29T05:43:32;7.30;99.90
5248;DHT22;2644;52.420;13.580;2022-09-29T05:44:34;7.40;99.90
5248;DHT22;2644;52.420;13.580;2022-09-29T05:45:37;7.40;99.90
5248;DHT22;2644;52.420;13.580;2022-09-29T05:46:40;7.40;99.90
5248;DHT22;2644;52.420;13.580;2022-09-29T05:47:43;7.40;99.90
5248;DHT22;2644;52.420;13.580;2022-09-29T05:48:47;7.40;99.90
5248;DHT22;2644;52.420;13.580;2022-09-29T05:49:49;7.50;99.90
5248;DHT22;2644;52.420;13.580;2022-09-29T05:50:52;7.50;99.90
5248;DHT22;2644;52.420;13.580;2022-09-29T05:51:54;7.50;99.90
5248;DHT22;2644;52.420;13.580;2022-09-29T05:53:01;7.50;99.90
5248;DHT22;2644;52.420;13.580;2022-09-29T05:54:04;7.50;99.90
5248;DHT22;2644;52.420;13.580;2022-09-29T05:55:08;7.50;99.90
5248;DHT22;2644;52.420;13.580;2022-09-29T05:56:12;7.40;99.90
5248;DHT22;2644;52.420;13.580;2022-09-29T05:57:17;7.50;99.90
5248;DHT22;2644;52.420;13.580;2022-09-29T05:58:21;7.50;99.90
5248;DHT22;2644;52.420;13.580;2022-09-29T05:59:24;7.50;99.90
5248;DHT22;2644;52.420;13.580;2022-09-29T06:00:26;7.40;99.90
5248;DHT22;2644;52.420;13.580;2022-09-29T06:01:31;7.50;99.90
5248;DHT22;2644;52.420;13.580;2022-09-29T06:02:34;7.50;99.90
5248;DHT22;2644;52.420;13.580;2022-09-29T06:03:37;7.60;99.90
5248;DHT22;2644;52.420;13.580;2022-09-29T06:04:39;7.60;99.90
5248;DHT22;2644;52.420;13.580;2022-09-29T06:05:42;7.70;99.90
5248;DHT22;2644;52.420;13.580;2022-09-29T06:06:46;7.70;99.90
5248;DHT22;2644;52.420;13.580;2022-09-29T06:07:50;7.70;99.90
5248;DHT22;2644;52.420;13.580;2022-09-29T06:08:53;7.70;99.90
5248;DHT22;2644;52.420;13.580;2022-09-29T06:09:58;7.70;99.90
5248;DHT22;2644;52.420;13.580;2022-09-29T06:11:05;7.70;99.90
5248;DHT22;2644;52.420;13.580;2022-09-29T06:12:08;7.70;99.90
5248;DHT22;2644;52.420;13.580;2022-09-29T06:13:11;7.70;99.90
5248;DHT22;2644;52.420;13.580;2022-09-29T06:14:15;7.80;99.90
5248;DHT22;2644;52.420;13.580;2022-09-29T06:15:18;7.80;99.90
5248;DHT22;2644;52.420;13.580;2022-09-29T06:16:22;7.80;99.90
5248;DHT22;2644;52.420;13.580;2022-09-29T06:17:25;7.80;99.90
5248;DHT22;2644;52.420;13.580;2022-09-29T06:18:29;7.80;99.90
5248;DHT22;2644;52.420;13.580;2022-09-29T06:19:31;7.80;99.90
5248;DHT22;2644;52.420;13.580;2022-09-29T06:20:34;7.90;99.90
5248;DHT22;2644;52.420;13.580;2022-09-29T06:21:40;7.80;99.90
5248;DHT22;2644;52.420;13.580;2022-09-29T06:22:43;7.90;99.90
5248;DHT22;2644;52.420;13.580;2022-09-29T06:23:46;7.80;99.90
5248;DHT22;2644;52.420;13.580;2022-09-29T06:24:48;7.80;99.90
5248;DHT22;2644;52.420;13.580;2022-09-29T06:25:55;7.80;99.90
5248;DHT22;2644;52.420;13.580;2022-09-29T06:26:57;7.90;99.90
5248;DHT22;2644;52.420;13.580;2022-09-29T06:28:00;7.90;99.90
5248;DHT22;2644;52.420;13.580;2022-09-29T06:29:03;7.90;99.90
5248;DHT22;2644;52.420;13.580;2022-09-29T06:30:10;7.90;99.90
5248;DHT22;2644;52.420;13.580;2022-09-29T06:31:15;7.90;99.90
5248;DHT22;2644;52.420;13.580;2022-09-29T06:32:18;7.90;99.90
5248;DHT22;2644;52.420;13.580;2022-09-29T06:33:25;7.90;99.90
5248;DHT22;2644;52.420;13.580;2022-09-29T06:34:27;7.90;99.90
5248;DHT22;2644;52.420;13.580;2022-09-29T06:35:30;7.90;99.90
5248;DHT22;2644;52.420;13.580;2022-09-29T06:36:51;7.90;99.90
5248;DHT22;2644;52.420;13.580;2022-09-29T06:38:12;8.00;99.90
5248;DHT22;2644;52.420;13.580;2022-09-29T06:39:15;7.90;99.90
5248;DHT22;2644;52.420;13.580;2022-09-29T06:40:18;7.90;99.90
5248;DHT22;2644;52.420;13.580;2022-09-29T06:41:25;7.90;99.90
5248;DHT22;2644;52.420;13.580;2022-09-29T06:42:30;8.00;99.90
5248;DHT22;2644;52.420;13.580;2022-09-29T06:43:34;8.00;99.90
5248;DHT22;2644;52.420;13.580;2022-09-29T06:44:37;8.00;99.90
5248;DHT22;2644;52.420;13.580;2022-09-29T06:45:43;8.00;99.90
5248;DHT22;2644;52.420;13.580;2022-09-29T06:46:47;8.00;99.90
5248;DHT22;2644;52.420;13.580;2022-09-29T06:47:57;8.00;99.90
5248;DHT22;2644;52.420;13.580;2022-09-29T06:49:00;8.00;99.90
5248;DHT22;2644;52.420;13.580;2022-09-29T06:50:05;8.10;99.90
5248;DHT22;2644;52.420;13.580;2022-09-29T06:51:21;8.00;99.90
5248;DHT22;2644;52.420;13.580;2022-09-29T06:52:29;8.10;99.90
5248;DHT22;2644;52.420;13.580;2022-09-29T06:53:32;8.10;99.90
5248;DHT22;2644;52.420;13.580;2022-09-29T06:54:39;8.10;99.90
5248;DHT22;2644;52.420;13.580;2022-09-29T06:55:42;8.20;99.90
5248;DHT22;2644;52.420;13.580;2022-09-29T06:56:46;8.10;99.90
5248;DHT22;2644;52.420;13.580;2022-09-29T06:57:49;8.20;99.90
5248;DHT22;2644;52.420;13.580;2022-09-29T06:58:52;8.20;99.90
5248;DHT22;2644;52.420;13.580;2022-09-29T06:59:55;8.20;99.90
5248;DHT22;2644;52.420;13.580;2022-09-29T07:01:01;8.20;99.90
5248;DHT22;2644;52.420;13.580;2022-09-29T07:02:04;8.20;99.90
5248;DHT22;2644;52.420;13.580;2022-09-29T07:03:06;8.20;99.90
5248;DHT22;2644;52.420;13.580;2022-09-29T07:04:10;8.30;99.90
5248;DHT22;2644;52.420;13.580;2022-09-29T07:05:12;8.30;99.90
5248;DHT22;2644;52.420;13.580;2022-09-29T07:06:17;8.30;99.90
5248;DHT22;2644;52.420;13.580;2022-09-29T07:07:21;8.30;99.90